createdAt,value
2018-12-20T00:00:18.781Z,607.1
2018-12-20T00:01:21.243Z,607.5
2018-12-20T00:02:24.156Z,607.7
2018-12-20T00:03:26.752Z,607.4
2018-12-20T00:04:29.220Z,608
2018-12-20T00:05:31.818Z,607.6
2018-12-20T00:06:34.638Z,607.9
2018-12-20T00:07:37.070Z,607.8
2018-12-20T00:08:39.707Z,608
2018-12-20T00:09:42.434Z,607.8
2018-12-20T00:10:45.028Z,607.6
2018-12-20T00:11:47.582Z,607.6
2018-12-20T00:12:49.845Z,607.7
2018-12-20T00:13:52.168Z,607.9
2018-12-20T00:14:54.638Z,607.7
2018-12-20T00:15:57.210Z,607.6
2018-12-20T00:16:59.866Z,607.7
2018-12-20T00:18:01.721Z,607.8
2018-12-20T00:19:04.207Z,608
2018-12-20T00:20:06.591Z,607.5
2018-12-20T00:21:09.189Z,606.9
2018-12-20T00:22:11.745Z,607.3
2018-12-20T00:23:14.451Z,607
2018-12-20T00:24:17.155Z,606.9
2018-12-20T00:25:19.939Z,607.2
2018-12-20T00:26:22.646Z,607.1
2018-12-20T00:27:25.147Z,607
2018-12-20T00:28:27.980Z,607.4
2018-12-20T00:29:30.291Z,607.2
2018-12-20T00:30:32.820Z,607.1
2018-12-20T00:31:35.573Z,606.4
2018-12-20T00:32:38.286Z,606.7
2018-12-20T00:33:40.774Z,606.6
2018-12-20T00:34:43.370Z,607
2018-12-20T00:35:46.230Z,606.7
2018-12-20T00:36:48.899Z,606.8
2018-12-20T00:37:51.652Z,606.8
2018-12-20T00:38:54.559Z,606.8
2018-12-20T00:39:57.427Z,606.5
2018-12-20T00:40:59.923Z,606.5
2018-12-20T00:42:02.403Z,606.4
2018-12-20T00:43:04.818Z,606.4
2018-12-20T00:44:07.335Z,606.5
2018-12-20T00:45:10.305Z,606.1
2018-12-20T00:46:12.890Z,606.3
2018-12-20T00:47:15.450Z,605.9
2018-12-20T00:48:18.226Z,605.5
2018-12-20T00:49:21.020Z,605.5
2018-12-20T00:50:23.723Z,605.5
2018-12-20T00:51:26.188Z,605.4
2018-12-20T00:52:29.121Z,605.4
2018-12-20T00:53:33.423Z,605.7
2018-12-20T00:54:36.116Z,605.5
2018-12-20T00:55:38.738Z,605.6
2018-12-20T00:56:41.670Z,605
2018-12-20T00:57:44.410Z,604.9
2018-12-20T00:58:46.962Z,604.9
2018-12-20T00:59:49.593Z,604.9
2018-12-20T01:00:52.091Z,604.6
2018-12-20T01:01:54.932Z,604.8
2018-12-20T01:02:57.936Z,604.6
2018-12-20T01:04:00.134Z,605.2
2018-12-20T01:05:02.989Z,605
2018-12-20T01:06:05.824Z,604.8
2018-12-20T01:07:08.394Z,604.3
2018-12-20T01:08:10.919Z,604.5
2018-12-20T01:09:13.770Z,604.8
2018-12-20T01:10:16.349Z,604.2
2018-12-20T01:11:18.902Z,604.4
2018-12-20T01:12:21.641Z,603.8
2018-12-20T01:13:24.276Z,603.6
2018-12-20T01:14:26.766Z,604.2
2018-12-20T01:15:29.525Z,604.1
2018-12-20T01:16:32.491Z,604.1
2018-12-20T01:17:35.081Z,604.3
2018-12-20T01:18:37.842Z,603.5
2018-12-20T01:19:40.559Z,604.1
2018-12-20T01:20:42.896Z,603.6
2018-12-20T01:21:45.515Z,603.5
2018-12-20T01:22:47.958Z,604
2018-12-20T01:23:50.371Z,603.7
2018-12-20T01:24:52.650Z,603.2
2018-12-20T01:25:55.407Z,603.2
2018-12-20T01:26:57.697Z,603.2
2018-12-20T01:28:00.157Z,603.2
2018-12-20T01:29:02.352Z,602.9
2018-12-20T01:30:04.875Z,602.9
2018-12-20T01:31:07.462Z,602.7
2018-12-20T01:32:09.924Z,602.7
2018-12-20T01:33:12.448Z,602.9
2018-12-20T01:34:14.980Z,602.6
2018-12-20T01:35:17.571Z,602.5
2018-12-20T01:36:20.077Z,602.7
2018-12-20T01:37:22.547Z,603.1
2018-12-20T01:38:24.893Z,602.5
2018-12-20T01:39:27.601Z,602.3
2018-12-20T01:40:30.322Z,602.5
2018-12-20T01:41:33.280Z,602.5
2018-12-20T01:42:36.136Z,602.6
2018-12-20T01:43:38.613Z,602.7
2018-12-20T01:44:40.228Z,602.5
2018-12-20T01:45:42.571Z,602.5
2018-12-20T01:46:45.655Z,602.7
2018-12-20T01:47:48.136Z,602.6
2018-12-20T01:48:50.837Z,602.2
2018-12-20T01:49:53.062Z,602.5
2018-12-20T01:50:54.944Z,602.8
2018-12-20T01:51:57.679Z,603
2018-12-20T01:53:00.223Z,603.2
2018-12-20T01:54:02.667Z,603.2
2018-12-20T01:55:05.575Z,603.4
2018-12-20T01:56:08.559Z,603
2018-12-20T01:57:11.549Z,603.4
2018-12-20T01:58:13.706Z,603.2
2018-12-20T01:59:16.669Z,603.5
2018-12-20T02:00:19.101Z,603.1
2018-12-20T02:01:21.376Z,603.1
2018-12-20T02:02:23.931Z,602.8
2018-12-20T02:03:26.509Z,602.8
2018-12-20T02:04:29.179Z,603.2
2018-12-20T02:05:31.815Z,602.9
2018-12-20T02:06:34.425Z,603.3
2018-12-20T02:07:37.231Z,603.4
2018-12-20T02:08:39.652Z,603
2018-12-20T02:09:42.447Z,603.5
2018-12-20T02:10:44.613Z,602.8
2018-12-20T02:11:46.914Z,602.6
2018-12-20T02:12:49.114Z,603
2018-12-20T02:13:51.643Z,602.4
2018-12-20T02:16:00.221Z,602.7
2018-12-20T02:17:02.957Z,602.7
2018-12-20T02:18:05.001Z,602.7
2018-12-20T02:19:07.937Z,602.8
2018-12-20T02:20:10.229Z,602.9
2018-12-20T02:21:12.356Z,602.5
2018-12-20T02:22:15.068Z,602.7
2018-12-20T02:23:17.753Z,602.6
2018-12-20T02:24:20.355Z,602.6
2018-12-20T02:25:22.689Z,602.4
2018-12-20T02:26:25.274Z,602.9
2018-12-20T02:27:27.737Z,602.8
2018-12-20T02:28:30.263Z,602.9
2018-12-20T02:29:32.916Z,603.3
2018-12-20T02:30:35.679Z,602.9
2018-12-20T02:31:38.047Z,603
2018-12-20T02:32:41.019Z,603.3
2018-12-20T02:33:43.635Z,603.3
2018-12-20T02:34:46.271Z,602.8
2018-12-20T02:35:48.984Z,603.2
2018-12-20T02:36:52.035Z,603.1
2018-12-20T02:37:54.751Z,602.9
2018-12-20T02:38:57.109Z,603.2
2018-12-20T02:40:00.141Z,602.6
2018-12-20T02:41:02.550Z,602.8
2018-12-20T02:42:05.574Z,602.8
2018-12-20T02:43:08.441Z,602.8
2018-12-20T02:44:11.067Z,602.9
2018-12-20T02:45:13.588Z,602.6
2018-12-20T02:46:16.188Z,602.7
2018-12-20T02:47:18.817Z,602.5
2018-12-20T02:48:21.679Z,602.8
2018-12-20T02:49:24.522Z,602.3
2018-12-20T02:50:27.377Z,602.4
2018-12-20T02:51:30.103Z,602.2
2018-12-20T02:52:32.833Z,601.7
2018-12-20T02:53:35.836Z,601.7
2018-12-20T02:54:38.558Z,601.9
2018-12-20T02:55:41.099Z,601.8
2018-12-20T02:56:43.690Z,601.8
2018-12-20T02:57:45.850Z,602.1
2018-12-20T02:58:48.502Z,601.8
2018-12-20T02:59:50.826Z,601.9
2018-12-20T03:00:53.565Z,601.7
2018-12-20T03:01:56.236Z,602
2018-12-20T03:02:59.168Z,601.8
2018-12-20T03:04:02.048Z,602.1
2018-12-20T03:05:04.568Z,601.7
2018-12-20T03:06:07.315Z,601.8
2018-12-20T03:07:09.630Z,601.5
2018-12-20T03:08:12.106Z,601.9
2018-12-20T03:09:14.303Z,601.9
2018-12-20T03:10:16.744Z,601.1
2018-12-20T03:11:19.571Z,601.7
2018-12-20T03:12:21.853Z,601.7
2018-12-20T03:13:24.361Z,601.3
2018-12-20T03:14:26.971Z,601.7
2018-12-20T03:15:29.932Z,601.8
2018-12-20T03:16:32.554Z,602
2018-12-20T03:17:35.016Z,601.8
2018-12-20T03:18:37.165Z,601.9
2018-12-20T03:19:39.722Z,601.7
2018-12-20T03:20:42.405Z,601.6
2018-12-20T03:21:44.981Z,601.5
2018-12-20T03:22:46.966Z,601.5
2018-12-20T03:23:49.390Z,602.1
2018-12-20T03:24:52.027Z,601.8
2018-12-20T03:25:54.378Z,601.3
2018-12-20T03:26:57.036Z,601.5
2018-12-20T03:27:59.614Z,601.5
2018-12-20T03:29:02.305Z,601.4
2018-12-20T03:30:05.215Z,601.6
2018-12-20T03:31:08.402Z,601.2
2018-12-20T03:32:12.073Z,600.9
2018-12-20T03:33:14.598Z,601.6
2018-12-20T03:34:17.064Z,601.2
2018-12-20T03:35:19.826Z,600.9
2018-12-20T03:36:22.463Z,601.1
2018-12-20T03:37:24.840Z,601.2
2018-12-20T03:38:27.710Z,601.2
2018-12-20T03:39:30.132Z,601.3
2018-12-20T03:40:33.126Z,601.7
2018-12-20T03:41:35.554Z,600.9
2018-12-20T03:42:38.217Z,601.3
2018-12-20T03:43:40.997Z,601
2018-12-20T03:44:43.621Z,601.1
2018-12-20T03:45:46.276Z,600.9
2018-12-20T03:46:48.957Z,601.2
2018-12-20T03:47:51.758Z,601.3
2018-12-20T03:48:54.531Z,601.2
2018-12-20T03:49:57.004Z,601.2
2018-12-20T03:51:00.044Z,601.2
2018-12-20T03:52:03.130Z,601.5
2018-12-20T03:53:05.872Z,601.3
2018-12-20T03:54:08.706Z,601.2
2018-12-20T03:55:11.392Z,601.4
2018-12-20T03:56:14.007Z,601.1
2018-12-20T03:57:17.072Z,601.3
2018-12-20T03:58:18.962Z,601
2018-12-20T03:59:21.610Z,600.8
2018-12-20T04:00:24.523Z,600.5
2018-12-20T04:01:27.174Z,600.8
2018-12-20T04:02:29.759Z,600.8
2018-12-20T04:03:32.606Z,600.6
2018-12-20T04:04:35.445Z,600.8
2018-12-20T04:05:37.871Z,600.9
2018-12-20T04:06:40.741Z,600.9
2018-12-20T04:07:43.255Z,601.1
2018-12-20T04:08:45.673Z,600.6
2018-12-20T04:09:48.712Z,600.8
2018-12-20T04:10:51.228Z,601
2018-12-20T04:11:53.885Z,600.9
2018-12-20T04:12:56.037Z,600.9
2018-12-20T04:13:58.454Z,601.1
2018-12-20T04:15:01.194Z,600.8
2018-12-20T04:16:04.104Z,600.9
2018-12-20T04:17:06.996Z,600.8
2018-12-20T04:18:09.689Z,600.6
2018-12-20T04:19:12.455Z,600.5
2018-12-20T04:20:14.682Z,600.7
2018-12-20T04:21:17.523Z,600.9
2018-12-20T04:22:19.854Z,600.9
2018-12-20T04:23:22.651Z,601.1
2018-12-20T04:24:25.038Z,600.8
2018-12-20T04:25:27.558Z,600.9
2018-12-20T04:26:30.054Z,600.7
2018-12-20T04:27:32.671Z,600.5
2018-12-20T04:28:35.194Z,600.3
2018-12-20T04:29:37.792Z,600.3
2018-12-20T04:30:40.218Z,600.5
2018-12-20T04:31:43.019Z,600.9
2018-12-20T04:32:45.635Z,600.8
2018-12-20T04:33:48.429Z,600.3
2018-12-20T04:34:51.300Z,600.3
2018-12-20T04:35:53.805Z,600.3
2018-12-20T04:36:55.967Z,599.9
2018-12-20T04:37:58.414Z,599.8
2018-12-20T04:39:00.773Z,599.4
2018-12-20T04:40:03.870Z,599.4
2018-12-20T04:41:06.662Z,599.3
2018-12-20T04:42:09.161Z,599.2
2018-12-20T04:43:11.599Z,599.5
2018-12-20T04:44:14.673Z,599.4
2018-12-20T04:45:17.402Z,599.1
2018-12-20T04:46:20.208Z,599
2018-12-20T04:47:24.174Z,598.7
2018-12-20T04:48:26.770Z,598.7
2018-12-20T04:49:29.579Z,598.3
2018-12-20T04:50:31.666Z,598.8
2018-12-20T04:51:34.449Z,598.8
2018-12-20T04:52:37.139Z,599
2018-12-20T04:53:39.500Z,598.9
2018-12-20T04:54:41.954Z,599
2018-12-20T04:55:44.492Z,598.7
2018-12-20T04:56:47.225Z,598.5
2018-12-20T04:57:49.718Z,599.1
2018-12-20T04:58:52.631Z,598.7
2018-12-20T04:59:55.101Z,598.8
2018-12-20T05:00:58.004Z,598.6
2018-12-20T05:02:00.626Z,598.1
2018-12-20T05:03:03.286Z,598.6
2018-12-20T05:04:06.227Z,598.6
2018-12-20T05:05:08.927Z,598.4
2018-12-20T05:06:11.534Z,598.5
2018-12-20T05:07:14.325Z,598.6
2018-12-20T05:08:16.752Z,598.3
2018-12-20T05:09:19.409Z,598.8
2018-12-20T05:10:22.351Z,598.6
2018-12-20T05:11:25.321Z,598.7
2018-12-20T05:12:27.880Z,598.3
2018-12-20T05:13:30.434Z,598.1
2018-12-20T05:14:32.682Z,597.7
2018-12-20T05:15:34.824Z,598.2
2018-12-20T05:16:37.597Z,598
2018-12-20T05:17:40.451Z,597.8
2018-12-20T05:18:43.697Z,597.9
2018-12-20T05:19:46.929Z,597.7
2018-12-20T05:20:49.420Z,597.8
2018-12-20T05:21:51.919Z,597.7
2018-12-20T05:22:54.350Z,597.6
2018-12-20T05:23:56.996Z,597.7
2018-12-20T05:24:59.165Z,597.5
2018-12-20T05:26:01.658Z,597.3
2018-12-20T05:27:04.093Z,597.4
2018-12-20T05:28:06.501Z,597.3
2018-12-20T05:29:09.309Z,597
2018-12-20T05:30:12.075Z,596.8
2018-12-20T05:31:14.503Z,596.9
2018-12-20T05:32:16.909Z,596.8
2018-12-20T05:33:19.513Z,596.9
2018-12-20T05:34:22.079Z,596.8
2018-12-20T05:35:24.636Z,597
2018-12-20T05:36:27.364Z,596.9
2018-12-20T05:37:29.867Z,596.8
2018-12-20T05:38:32.038Z,596.6
2018-12-20T05:39:34.801Z,596.3
2018-12-20T05:40:37.247Z,596.5
2018-12-20T05:41:39.738Z,597
2018-12-20T05:42:42.203Z,596.9
2018-12-20T05:43:45.048Z,596.8
2018-12-20T05:45:52.364Z,596.8
2018-12-20T05:46:55.245Z,596.2
2018-12-20T05:47:58.072Z,596.6
2018-12-20T05:49:00.545Z,596.3
2018-12-20T05:50:02.837Z,596.2
2018-12-20T05:51:05.500Z,596.4
2018-12-20T05:52:07.957Z,596
2018-12-20T05:53:09.814Z,596.1
2018-12-20T05:54:12.460Z,595.8
2018-12-20T05:55:15.394Z,595.8
2018-12-20T05:56:17.976Z,595.5
2018-12-20T05:57:20.255Z,595.5
2018-12-20T05:58:22.568Z,595.3
2018-12-20T05:59:24.845Z,595.2
2018-12-20T06:00:27.448Z,595.4
2018-12-20T06:01:30.156Z,595
2018-12-20T06:02:32.702Z,595.1
2018-12-20T06:03:35.428Z,594.9
2018-12-20T06:04:38.122Z,594.7
2018-12-20T06:05:40.564Z,594.6
2018-12-20T06:06:43.146Z,594.5
2018-12-20T06:07:45.663Z,594.7
2018-12-20T06:08:47.984Z,594.7
2018-12-20T06:09:50.487Z,594.7
2018-12-20T06:10:52.627Z,594.3
2018-12-20T06:11:55.300Z,594.5
2018-12-20T06:12:57.729Z,594.3
2018-12-20T06:14:00.139Z,594.3
2018-12-20T06:15:02.565Z,594.2
2018-12-20T06:17:10.923Z,593.7
2018-12-20T06:18:13.625Z,594
2018-12-20T06:19:16.575Z,593.5
2018-12-20T06:20:19.385Z,593.8
2018-12-20T06:21:22.131Z,593.4
2018-12-20T06:22:24.367Z,593.1
2018-12-20T06:23:26.395Z,593
2018-12-20T06:24:28.295Z,592.9
2018-12-20T06:25:30.724Z,593.1
2018-12-20T06:26:33.163Z,592.8
2018-12-20T06:27:35.592Z,592.8
2018-12-20T06:28:37.460Z,592.5
2018-12-20T06:29:39.612Z,592.6
2018-12-20T06:30:42.042Z,592.2
2018-12-20T06:31:44.459Z,592.1
2018-12-20T06:32:46.605Z,592.1
2018-12-20T06:33:48.519Z,592
2018-12-20T06:34:50.687Z,592.1
2018-12-20T06:35:53.192Z,591.7
2018-12-20T06:36:55.350Z,592
2018-12-20T06:37:57.779Z,591.8
2018-12-20T06:38:59.652Z,591.7
2018-12-20T06:40:02.084Z,591.7
2018-12-20T06:41:04.228Z,591.6
2018-12-20T06:42:06.666Z,591.5
2018-12-20T06:43:09.110Z,591.9
2018-12-20T06:44:11.546Z,591.7
2018-12-20T06:45:13.690Z,592.1
2018-12-20T06:47:21.097Z,591.9
2018-12-20T06:48:23.382Z,591.8
2018-12-20T06:49:25.911Z,591.7
2018-12-20T06:50:27.820Z,591.7
2018-12-20T06:51:30.250Z,591.7
2018-12-20T06:52:32.693Z,591.9
2018-12-20T06:53:34.858Z,591.8
2018-12-20T06:54:37.330Z,591.6
2018-12-20T06:55:39.496Z,591.6
2018-12-20T06:56:42.004Z,591.7
2018-12-20T06:57:44.436Z,591.6
2018-12-20T06:58:46.580Z,591.7
2018-12-20T06:59:48.448Z,592
2018-12-20T07:00:50.880Z,591.3
2018-12-20T07:01:53.321Z,591.8
2018-12-20T07:02:55.750Z,591.7
2018-12-20T07:03:57.909Z,591.6
2018-12-20T07:05:00.079Z,591.5
2018-12-20T07:06:02.518Z,591.7
2018-12-20T07:07:04.643Z,591.2
2018-12-20T07:08:06.242Z,591.5
2018-12-20T07:09:08.142Z,591.5
2018-12-20T07:10:10.303Z,591.7
2018-12-20T07:11:12.728Z,592
2018-12-20T07:12:15.152Z,591.9
2018-12-20T07:13:17.569Z,592
2018-12-20T07:14:19.639Z,591.6
2018-12-20T07:15:21.776Z,592
2018-12-20T07:17:29.183Z,591.8
2018-12-20T07:18:31.414Z,591.4
2018-12-20T07:19:33.913Z,591.5
2018-12-20T07:20:36.339Z,591.2
2018-12-20T07:21:38.493Z,591.2
2018-12-20T07:22:40.633Z,591.4
2018-12-20T07:23:42.793Z,591.7
2018-12-20T07:24:44.967Z,591
2018-12-20T07:25:46.845Z,591.6
2018-12-20T07:26:49.051Z,591.4
2018-12-20T07:27:51.478Z,591.7
2018-12-20T07:28:53.893Z,591.1
2018-12-20T07:29:56.362Z,591.1
2018-12-20T07:30:58.245Z,590.8
2018-12-20T07:32:00.679Z,590.9
2018-12-20T07:33:03.109Z,591
2018-12-20T07:34:05.257Z,590.8
2018-12-20T07:35:07.415Z,591.2
2018-12-20T07:36:09.391Z,590.7
2018-12-20T07:37:11.293Z,590.8
2018-12-20T07:38:13.426Z,591.4
2018-12-20T07:39:15.935Z,591.1
2018-12-20T07:40:18.097Z,590.6
2018-12-20T07:41:20.522Z,590.8
2018-12-20T07:42:22.721Z,590.9
2018-12-20T07:43:25.155Z,590.7
2018-12-20T07:44:27.402Z,590.6
2018-12-20T07:45:29.821Z,590.5
2018-12-20T07:47:37.251Z,590.6
2018-12-20T07:48:39.692Z,590.3
2018-12-20T07:49:41.836Z,590.6
2018-12-20T07:50:43.715Z,590.3
2018-12-20T07:51:45.883Z,590.6
2018-12-20T07:52:48.037Z,590.2
2018-12-20T07:53:50.462Z,589.9
2018-12-20T07:54:52.623Z,589.7
2018-12-20T07:55:54.773Z,590.2
2018-12-20T07:56:57.233Z,590
2018-12-20T07:57:59.400Z,590.1
2018-12-20T07:59:01.273Z,590.2
2018-12-20T08:00:03.410Z,590
2018-12-20T08:01:05.844Z,590.1
2018-12-20T08:02:07.735Z,589.8
2018-12-20T08:03:10.187Z,589.8
2018-12-20T08:04:12.623Z,589.8
2018-12-20T08:05:14.876Z,589.8
2018-12-20T08:06:17.313Z,589.8
2018-12-20T08:07:19.737Z,589.6
2018-12-20T08:08:21.618Z,589.7
2018-12-20T08:09:23.781Z,589.7
2018-12-20T08:10:25.935Z,589.8
2018-12-20T08:11:28.073Z,589.6
2018-12-20T08:12:30.230Z,589.3
2018-12-20T08:13:32.655Z,589.5
2018-12-20T08:14:35.073Z,589.1
2018-12-20T08:15:37.226Z,589.2
2018-12-20T08:17:44.638Z,588.7
2018-12-20T08:18:46.798Z,588.3
2018-12-20T08:19:49.233Z,588.8
2018-12-20T08:20:51.661Z,588.8
2018-12-20T08:21:54.083Z,588.6
2018-12-20T08:22:56.508Z,588.2
2018-12-20T08:23:58.945Z,588.2
2018-12-20T08:25:01.372Z,588.1
2018-12-20T08:26:03.253Z,588
2018-12-20T08:27:05.403Z,588.2
2018-12-20T08:28:07.570Z,588.1
2018-12-20T08:29:09.813Z,587.9
2018-12-20T08:30:12.252Z,587.9
2018-12-20T08:31:14.405Z,588
2018-12-20T08:32:16.553Z,588.2
2018-12-20T08:33:18.691Z,587.4
2018-12-20T08:34:21.237Z,587.2
2018-12-20T08:35:23.657Z,586.7
2018-12-20T08:36:25.553Z,586.7
2018-12-20T08:37:27.532Z,586.7
2018-12-20T08:38:29.700Z,586.2
2018-12-20T08:39:32.133Z,586.5
2018-12-20T08:40:34.565Z,586.3
2018-12-20T08:41:36.989Z,586.4
2018-12-20T08:42:39.150Z,586.5
2018-12-20T08:43:41.582Z,586.3
2018-12-20T08:44:42.902Z,586.2
2018-12-20T08:45:45.329Z,585.9
2018-12-20T08:47:52.760Z,586.3
2018-12-20T08:48:55.182Z,586.3
2018-12-20T08:49:57.320Z,585.9
2018-12-20T08:50:59.761Z,586.2
2018-12-20T08:52:02.195Z,585.9
2018-12-20T08:53:04.644Z,586.1
2018-12-20T08:54:07.073Z,585.6
2018-12-20T08:55:09.540Z,586.1
2018-12-20T08:56:11.685Z,585.7
2018-12-20T08:57:14.122Z,585.5
2018-12-20T08:58:16.273Z,585.4
2018-12-20T08:59:18.426Z,585.4
2018-12-20T09:00:20.851Z,585.7
2018-12-20T09:01:22.722Z,584.9
2018-12-20T09:02:25.172Z,584.5
2018-12-20T09:03:27.336Z,584.4
2018-12-20T09:04:29.755Z,584.6
2018-12-20T09:05:32.182Z,584.3
2018-12-20T09:06:34.322Z,584.5
2018-12-20T09:07:36.510Z,584.7
2018-12-20T09:08:38.951Z,584.4
2018-12-20T09:09:41.115Z,584.3
2018-12-20T09:10:43.544Z,584.2
2018-12-20T09:11:45.694Z,584.4
2018-12-20T09:12:48.124Z,584.2
2018-12-20T09:13:50.560Z,584
2018-12-20T09:14:52.994Z,584.6
2018-12-20T09:15:55.422Z,584.1
2018-12-20T09:18:02.854Z,584.2
2018-12-20T09:19:05.289Z,584.4
2018-12-20T09:20:07.713Z,584.5
2018-12-20T09:21:10.138Z,584.3
2018-12-20T09:22:12.296Z,584
2018-12-20T09:23:14.716Z,584.3
2018-12-20T09:24:16.871Z,584.1
2018-12-20T09:25:18.998Z,583.9
2018-12-20T09:26:21.140Z,583.9
2018-12-20T09:27:23.574Z,584.3
2018-12-20T09:28:25.478Z,584.2
2018-12-20T09:29:27.896Z,583.4
2018-12-20T09:31:35.301Z,584.3
2018-12-20T09:32:37.438Z,583.7
2018-12-20T09:33:39.870Z,584
2018-12-20T09:34:42.290Z,584.3
2018-12-20T09:35:44.717Z,583.7
2018-12-20T09:36:47.140Z,584
2018-12-20T09:37:49.276Z,583.8
2018-12-20T09:38:51.424Z,584.2
2018-12-20T09:39:54.198Z,584.1
2018-12-20T09:40:56.368Z,584.2
2018-12-20T09:41:58.275Z,583.8
2018-12-20T09:43:00.441Z,584.4
2018-12-20T09:44:02.593Z,584.1
2018-12-20T09:45:05.034Z,584.2
2018-12-20T09:46:07.462Z,584.1
2018-12-20T09:48:14.892Z,584.8
2018-12-20T09:49:17.063Z,584.5
2018-12-20T09:50:18.916Z,584.4
2018-12-20T09:51:21.340Z,585.1
2018-12-20T09:52:23.493Z,584.8
2018-12-20T09:53:25.644Z,584.7
2018-12-20T09:54:27.814Z,584.6
2018-12-20T09:55:30.236Z,584.2
2018-12-20T09:56:32.653Z,584.5
2018-12-20T09:57:35.344Z,584
2018-12-20T09:58:37.822Z,584.9
2018-12-20T09:59:39.968Z,584.2
2018-12-20T10:00:42.199Z,584
2018-12-20T10:01:44.637Z,583.8
2018-12-20T10:02:46.529Z,584.2
2018-12-20T10:03:48.687Z,584.4
2018-12-20T10:04:51.123Z,584.4
2018-12-20T10:05:53.280Z,583.9
2018-12-20T10:06:55.452Z,584.4
2018-12-20T10:07:57.397Z,584.2
2018-12-20T10:08:59.290Z,584.1
2018-12-20T10:10:01.721Z,584.4
2018-12-20T10:11:04.155Z,584.1
2018-12-20T10:12:06.598Z,583.8
2018-12-20T10:13:09.037Z,583.3
2018-12-20T10:14:11.185Z,584
2018-12-20T10:15:13.609Z,584.6
2018-12-20T10:16:16.036Z,584
2018-12-20T10:18:23.181Z,583.5
2018-12-20T10:19:25.620Z,584
2018-12-20T10:20:28.055Z,583.2
2018-12-20T10:21:30.494Z,583.8
2018-12-20T10:22:32.918Z,584.1
2018-12-20T10:23:35.342Z,584.3
2018-12-20T10:24:37.492Z,584.1
2018-12-20T10:25:39.650Z,584.1
2018-12-20T10:26:42.088Z,584.6
2018-12-20T10:27:44.244Z,584.4
2018-12-20T10:28:46.384Z,584.1
2018-12-20T10:29:48.807Z,583.7
2018-12-20T10:30:51.253Z,583.8
2018-12-20T10:31:53.394Z,583.7
2018-12-20T10:32:55.831Z,584.1
2018-12-20T10:33:58.259Z,583.8
2018-12-20T10:35:00.763Z,583.9
2018-12-20T10:36:03.193Z,584.1
2018-12-20T10:37:05.327Z,584.1
2018-12-20T10:38:07.477Z,584.1
2018-12-20T10:39:09.354Z,584.6
2018-12-20T10:40:11.502Z,583.8
2018-12-20T10:41:13.933Z,583.5
2018-12-20T10:42:16.354Z,584.1
2018-12-20T10:43:18.520Z,584
2018-12-20T10:44:20.967Z,583.9
2018-12-20T10:45:23.147Z,584.2
2018-12-20T10:46:25.302Z,584.3
2018-12-20T10:48:32.174Z,583.7
2018-12-20T10:49:34.323Z,584
2018-12-20T10:50:35.903Z,583.3
2018-12-20T10:51:38.325Z,583.9
2018-12-20T10:52:40.452Z,583.7
2018-12-20T10:53:42.873Z,583.2
2018-12-20T10:54:45.390Z,583
2018-12-20T10:55:47.821Z,583.7
2018-12-20T10:56:50.251Z,584.1
2018-12-20T10:57:52.689Z,584.1
2018-12-20T10:58:55.113Z,584.3
2018-12-20T10:59:57.280Z,584.6
2018-12-20T11:00:59.715Z,584.2
2018-12-20T11:02:01.873Z,584.4
2018-12-20T11:03:04.302Z,585.1
2018-12-20T11:04:06.725Z,584.6
2018-12-20T11:05:09.153Z,584.3
2018-12-20T11:06:11.586Z,584.3
2018-12-20T11:07:13.751Z,584.9
2018-12-20T11:08:15.903Z,585
2018-12-20T11:09:18.063Z,585.5
2018-12-20T11:10:20.215Z,584.8
2018-12-20T11:11:22.376Z,584.6
2018-12-20T11:12:24.639Z,585.5
2018-12-20T11:13:27.065Z,584.6
2018-12-20T11:14:29.223Z,584.9
2018-12-20T11:15:31.470Z,584.9
2018-12-20T11:16:33.322Z,585.6
2018-12-20T11:18:40.177Z,585.1
2018-12-20T11:19:42.702Z,585.4
2018-12-20T11:20:45.142Z,585.5
2018-12-20T11:21:47.175Z,584.7
2018-12-20T11:22:49.613Z,585.3
2018-12-20T11:23:52.044Z,585.6
2018-12-20T11:24:54.463Z,585.7
2018-12-20T11:25:56.901Z,585.7
2018-12-20T11:26:59.355Z,585.6
2018-12-20T11:28:01.523Z,585.5
2018-12-20T11:29:03.956Z,585.9
2018-12-20T11:30:06.112Z,585.1
2018-12-20T11:31:08.600Z,586.3
2018-12-20T11:32:11.023Z,585.8
2018-12-20T11:33:13.455Z,585.9
2018-12-20T11:34:15.883Z,586.3
2018-12-20T11:35:18.015Z,586
2018-12-20T11:36:20.442Z,585.5
2018-12-20T11:37:22.863Z,586.5
2018-12-20T11:38:25.297Z,585.9
2018-12-20T11:39:27.721Z,586.2
2018-12-20T11:40:30.143Z,586.5
2018-12-20T11:41:32.312Z,586.2
2018-12-20T11:42:34.728Z,585.6
2018-12-20T11:43:36.605Z,586.1
2018-12-20T11:44:39.023Z,586.4
2018-12-20T11:45:41.476Z,586.1
2018-12-20T11:46:43.913Z,586.1
2018-12-20T11:47:48.151Z,586
2018-12-20T11:48:50.040Z,586.5
2018-12-20T11:49:52.452Z,585.5
2018-12-20T11:50:54.903Z,586.4
2018-12-20T11:51:57.334Z,586.3
2018-12-20T11:52:59.761Z,585.8
2018-12-20T11:54:02.222Z,585.9
2018-12-20T11:55:04.485Z,585.8
2018-12-20T11:56:06.973Z,585.4
2018-12-20T11:57:09.129Z,585.5
2018-12-20T11:58:11.289Z,585.1
2018-12-20T11:59:13.705Z,585.8
2018-12-20T12:00:16.131Z,585.6
2018-12-20T12:01:18.407Z,585.8
2018-12-20T12:03:25.533Z,585.3
2018-12-20T12:04:27.435Z,585.9
2018-12-20T12:05:29.878Z,585.5
2018-12-20T12:06:32.344Z,586.7
2018-12-20T12:07:34.512Z,586.2
2018-12-20T12:08:36.687Z,585.2
2018-12-20T12:09:38.843Z,585.3
2018-12-20T12:10:41.270Z,586.5
2018-12-20T12:11:43.697Z,586.1
2018-12-20T12:12:46.135Z,585.7
2018-12-20T12:13:47.987Z,586.2
2018-12-20T12:14:50.133Z,586.2
2018-12-20T12:15:52.280Z,586
2018-12-20T12:16:54.723Z,585.7
2018-12-20T12:17:57.147Z,586.7
2018-12-20T12:18:59.581Z,586.1
2018-12-20T12:20:02.022Z,586.3
2018-12-20T12:21:04.181Z,587.2
2018-12-20T12:22:06.336Z,586.6
2018-12-20T12:23:08.791Z,586.1
2018-12-20T12:24:10.952Z,586.1
2018-12-20T12:25:13.363Z,586.9
2018-12-20T12:26:15.799Z,586.9
2018-12-20T12:27:18.233Z,587.2
2018-12-20T12:28:20.391Z,586.9
2018-12-20T12:29:22.843Z,587.1
2018-12-20T12:30:24.989Z,586.9
2018-12-20T12:31:27.164Z,587
2018-12-20T12:32:29.674Z,587.2
2018-12-20T12:33:32.104Z,587.4
2018-12-20T12:34:33.981Z,587.6
2018-12-20T12:35:36.138Z,586.8
2018-12-20T12:36:38.291Z,587.5
2018-12-20T12:37:40.716Z,587.3
2018-12-20T12:38:43.171Z,587
2018-12-20T12:39:45.607Z,586.9
2018-12-20T12:40:47.764Z,587.2
2018-12-20T12:41:50.194Z,587.3
2018-12-20T12:42:52.356Z,587.7
2018-12-20T12:43:54.786Z,587.3
2018-12-20T12:44:56.917Z,587.4
2018-12-20T12:45:59.341Z,587.2
2018-12-20T12:47:01.783Z,587
2018-12-20T12:48:05.525Z,587.1
2018-12-20T12:49:07.432Z,587.6
2018-12-20T12:50:09.591Z,588
2018-12-20T12:51:12.014Z,586.9
2018-12-20T12:52:14.449Z,587.3
2018-12-20T12:53:16.671Z,586.6
2018-12-20T12:54:18.826Z,587.9
2018-12-20T12:55:20.984Z,587.2
2018-12-20T12:56:23.158Z,588.3
2018-12-20T12:57:25.044Z,587.9
2018-12-20T12:58:27.209Z,587.8
2018-12-20T12:59:29.371Z,587.8
2018-12-20T13:00:31.529Z,588.5
2018-12-20T13:01:33.692Z,588.3
2018-12-20T13:02:36.251Z,588.3
2018-12-20T13:03:38.687Z,588.3
2018-12-20T13:04:41.108Z,588.5
2018-12-20T13:05:43.609Z,588.6
2018-12-20T13:06:46.093Z,588.8
2018-12-20T13:07:48.016Z,588.7
2018-12-20T13:08:50.203Z,588.5
2018-12-20T13:09:52.635Z,588.9
2018-12-20T13:10:54.765Z,589.1
2018-12-20T13:11:57.202Z,588.8
2018-12-20T13:12:59.633Z,588.4
2018-12-20T13:14:01.782Z,588.9
2018-12-20T13:15:03.918Z,588.7
2018-12-20T13:16:05.791Z,588.2
2018-12-20T13:17:08.230Z,588.2
2018-12-20T13:19:15.681Z,588.6
2018-12-20T13:20:17.910Z,588.3
2018-12-20T13:21:20.322Z,588.3
2018-12-20T13:22:22.505Z,590
2018-12-20T13:23:26.405Z,588.6
2018-12-20T13:24:28.841Z,588.4
2018-12-20T13:25:31.000Z,588.7
2018-12-20T13:26:33.423Z,588.9
2018-12-20T13:27:35.861Z,589.3
2018-12-20T13:28:38.294Z,588.8
2018-12-20T13:29:40.453Z,588.7
2018-12-20T13:30:42.879Z,588.5
2018-12-20T13:31:45.032Z,588.1
2018-12-20T13:32:47.453Z,587.3
2018-12-20T13:33:49.628Z,587.4
2018-12-20T13:34:52.061Z,588
2018-12-20T13:35:54.497Z,588
2018-12-20T13:36:56.632Z,587.8
2018-12-20T13:37:59.053Z,587.1
2018-12-20T13:39:01.487Z,587.3
2018-12-20T13:40:03.992Z,587.6
2018-12-20T13:41:05.591Z,587.3
2018-12-20T13:42:08.013Z,587.7
2018-12-20T13:43:10.159Z,587.2
2018-12-20T13:44:12.682Z,587.2
2018-12-20T13:45:15.148Z,587.2